Time;durP1;ratioP1;P1;durP2;ratioP2;P2;SDS_P1;SDS_P2;PMS_P1;PMS_P2;Temp;Humidity;BMP_temperature;BMP_pressure;BME280_temperature;BME280_humidity;BME280_pressure;Samples;Min_cycle;Max_cycle;Signal;HPM_P1;HPM_P2
2022/11/16 00:00:45;;;;;;;12.07;7.18;;;;;;;;;;5032589;28;20168;-78
2022/11/16 00:03:11;;;;;;;9.57;7.30;;;;;;;;;;5016136;28;20125;-78
2022/11/16 00:05:37;;;;;;;10.18;7.35;;;;;;;;;;5033477;28;20091;-78
2022/11/16 00:08:04;;;;;;;11.40;7.75;;;;;;;;;;5024565;28;20520;-78
2022/11/16 00:10:30;;;;;;;10.77;7.68;;;;;;;;;;5033788;28;20491;-78
2022/11/16 00:12:56;;;;;;;10.45;7.85;;;;;;;;;;5035126;28;20042;-78
2022/11/16 00:15:22;;;;;;;10.25;7.90;;;;;;;;;;5014708;28;20046;-78
2022/11/16 00:17:48;;;;;;;9.68;7.63;;;;;;;;;;5018680;28;20455;-78
2022/11/16 00:20:14;;;;;;;11.70;8.05;;;;;;;;;;5027498;28;20100;-78
2022/11/16 00:22:40;;;;;;;10.25;7.95;;;;;;;;;;5011058;28;20049;-78
2022/11/16 00:25:06;;;;;;;11.23;8.52;;;;;;;;;;5035296;28;20088;-78
2022/11/16 00:27:32;;;;;;;9.95;8.43;;;;;;;;;;5016329;28;20081;-78
2022/11/16 00:29:58;;;;;;;10.43;8.55;;;;;;;;;;5034453;28;20484;-78
2022/11/16 00:32:24;;;;;;;14.13;9.07;;;;;;;;;;5028977;28;20077;-78
2022/11/16 00:34:50;;;;;;;12.95;9.35;;;;;;;;;;4997023;28;20436;-78
2022/11/16 00:37:16;;;;;;;12.00;8.20;;;;;;;;;;5021011;28;20705;-78
2022/11/16 00:39:42;;;;;;;11.80;9.60;;;;;;;;;;4980514;28;20050;-78
2022/11/16 00:42:08;;;;;;;13.98;9.80;;;;;;;;;;5015154;28;20103;-78
2022/11/16 00:44:34;;;;;;;11.35;9.50;;;;;;;;;;5015808;28;20103;-78
2022/11/16 00:47:00;;;;;;;13.77;9.88;;;;;;;;;;5023841;28;20479;-78
2022/11/16 00:49:26;;;;;;;14.70;9.82;;;;;;;;;;5016489;28;20050;-78
2022/11/16 00:51:52;;;;;;;13.32;9.57;;;;;;;;;;5026365;28;20044;-78
2022/11/16 00:54:18;;;;;;;13.13;10.38;;;;;;;;;;5034044;28;20041;-78
2022/11/16 00:56:44;;;;;;;14.07;10.60;;;;;;;;;;5024147;28;20037;-78
2022/11/16 00:59:10;;;;;;;16.30;11.00;;;;;;;;;;5033684;28;20431;-78
2022/11/16 01:01:37;;;;;;;16.58;11.52;;;;;;;;;;5021279;28;20533;-78
2022/11/16 01:04:03;;;;;;;14.52;11.05;;;;;;;;;;5025461;28;20472;-78
2022/11/16 01:06:29;;;;;;;15.68;10.95;;;;;;;;;;5016294;28;20099;-78
2022/11/16 01:08:55;;;;;;;16.92;12.27;;;;;;;;;;5032729;28;20128;-78
2022/11/16 01:14:07;;;;;;;15.85;11.95;;;;;;;;;;5016451;28;20054;-78
2022/11/16 01:16:33;;;;;;;17.50;12.32;;;;;;;;;;5031777;28;20038;-78
2022/11/16 01:18:59;;;;;;;18.02;12.27;;;;;;;;;;5033764;28;20037;-77
2022/11/16 01:21:25;;;;;;;19.63;13.45;;;;;;;;;;5030989;28;20037;-78
2022/11/16 01:23:51;;;;;;;17.90;13.05;;;;;;;;;;5033825;28;20052;-78
2022/11/16 01:26:17;;;;;;;18.08;12.63;;;;;;;;;;5032786;28;20052;-78
2022/11/16 01:28:43;;;;;;;19.45;14.20;;;;;;;;;;5015598;28;20511;-78
2022/11/16 01:31:09;;;;;;;19.58;13.00;;;;;;;;;;5024029;28;20487;-78
2022/11/16 01:33:36;;;;;;;20.55;14.00;;;;;;;;;;5029614;28;20125;-77
2022/11/16 01:36:02;;;;;;;20.33;14.25;;;;;;;;;;5033162;28;20120;-78
2022/11/16 01:38:28;;;;;;;20.88;13.93;;;;;;;;;;5020982;28;20038;-78
2022/11/16 01:40:54;;;;;;;21.15;14.40;;;;;;;;;;5025915;28;20053;-78
2022/11/16 01:43:23;;;;;;;19.73;13.60;;;;;;;;;;5023534;28;20091;-78
2022/11/16 01:45:49;;;;;;;20.92;14.45;;;;;;;;;;5029491;28;20488;-78
2022/11/16 01:48:17;;;;;;;21.38;14.93;;;;;;;;;;5031204;28;20049;-78
2022/11/16 01:50:44;;;;;;;18.20;13.63;;;;;;;;;;5033331;28;20456;-78
2022/11/16 01:53:11;;;;;;;20.58;14.55;;;;;;;;;;5027174;28;20049;-78
2022/11/16 01:55:38;;;;;;;20.05;13.75;;;;;;;;;;5013810;28;20546;-78
2022/11/16 01:58:05;;;;;;;21.80;15.05;;;;;;;;;;5015961;28;20037;-78
2022/11/16 02:00:31;;;;;;;26.60;15.32;;;;;;;;;;5030018;28;20049;-78
2022/11/16 02:02:57;;;;;;;21.30;14.23;;;;;;;;;;5023770;28;20041;-78
2022/11/16 02:05:30;;;;;;;20.33;14.13;;;;;;;;;;5002946;28;20072;-78
2022/11/16 02:11:06;;;;;;;23.58;15.65;;;;;;;;;;5017984;28;20050;-78
2022/11/16 02:13:44;;;;;;;22.65;15.38;;;;;;;;;;5014012;28;20070;-78
2022/11/16 02:16:13;;;;;;;24.52;14.73;;;;;;;;;;5012445;28;20099;-79
2022/11/16 02:18:39;;;;;;;22.08;14.82;;;;;;;;;;5021693;28;20037;-79
2022/11/16 02:21:09;;;;;;;27.35;16.00;;;;;;;;;;5021085;28;20494;-79
2022/11/16 02:23:41;;;;;;;23.08;15.27;;;;;;;;;;5020793;28;20081;-79
2022/11/16 02:26:13;;;;;;;22.50;15.07;;;;;;;;;;5006575;28;20081;-79
2022/11/16 02:28:55;;;;;;;25.60;16.05;;;;;;;;;;5028651;28;20034;-79
2022/11/16 02:31:23;;;;;;;21.83;15.68;;;;;;;;;;5013341;28;20050;-78
2022/11/16 02:33:51;;;;;;;23.95;16.65;;;;;;;;;;5024616;28;20141;-78
2022/11/16 02:36:20;;;;;;;22.23;14.93;;;;;;;;;;5032687;28;20117;-78
2022/11/16 02:38:50;;;;;;;24.90;15.77;;;;;;;;;;5030317;28;20043;-78
2022/11/16 02:41:20;;;;;;;24.50;15.13;;;;;;;;;;5014816;28;20056;-78
2022/11/16 02:44:06;;;;;;;21.73;13.65;;;;;;;;;;5030559;28;20400;-78
2022/11/16 02:46:36;;;;;;;23.05;15.98;;;;;;;;;;4985263;28;20052;-79
2022/11/16 02:49:03;;;;;;;26.17;16.00;;;;;;;;;;5023140;28;20476;-78
2022/11/16 02:51:30;;;;;;;22.17;15.18;;;;;;;;;;5021624;28;20049;-79
2022/11/16 02:54:03;;;;;;;23.10;15.68;;;;;;;;;;5015091;28;20049;-78
2022/11/16 02:56:30;;;;;;;21.77;15.25;;;;;;;;;;5016624;28;20076;-78
2022/11/16 02:58:57;;;;;;;23.88;14.55;;;;;;;;;;4989500;28;20038;-78
2022/11/16 03:01:44;;;;;;;21.48;14.55;;;;;;;;;;5017385;28;20045;-78
2022/11/16 03:04:10;;;;;;;22.58;15.60;;;;;;;;;;5040603;28;20049;-78
2022/11/16 03:06:38;;;;;;;20.83;14.13;;;;;;;;;;5039658;28;20048;-78
2022/11/16 03:09:06;;;;;;;21.00;14.77;;;;;;;;;;5018943;28;20442;-78
2022/11/16 03:14:22;;;;;;;21.92;14.95;;;;;;;;;;5036619;28;20045;-78
2022/11/16 03:16:50;;;;;;;22.40;15.15;;;;;;;;;;5037063;28;20041;-78
2022/11/16 03:19:24;;;;;;;22.08;14.45;;;;;;;;;;5037125;28;20092;-78
2022/11/16 03:22:09;;;;;;;21.70;15.20;;;;;;;;;;5025744;28;20430;-78
2022/11/16 03:24:35;;;;;;;19.75;13.80;;;;;;;;;;5031089;28;20038;-78
2022/11/16 03:27:19;;;;;;;22.23;14.88;;;;;;;;;;5026888;28;20046;-78
2022/11/16 03:29:56;;;;;;;18.83;13.38;;;;;;;;;;5036513;28;20042;-78
2022/11/16 03:32:28;;;;;;;24.90;14.07;;;;;;;;;;5020913;28;20456;-78
2022/11/16 03:35:00;;;;;;;20.50;13.88;;;;;;;;;;5036454;28;20128;-78
2022/11/16 03:37:26;;;;;;;21.23;13.95;;;;;;;;;;5035411;28;20045;-78
2022/11/16 03:39:53;;;;;;;22.17;14.50;;;;;;;;;;5034916;28;20041;-78
2022/11/16 03:42:20;;;;;;;19.67;13.73;;;;;;;;;;5022965;28;20052;-78
2022/11/16 03:44:47;;;;;;;19.60;13.18;;;;;;;;;;5023587;28;20125;-78
2022/11/16 03:47:13;;;;;;;19.85;13.10;;;;;;;;;;5022413;28;20575;-78
2022/11/16 03:49:43;;;;;;;19.77;13.63;;;;;;;;;;5036673;28;20060;-79
2022/11/16 03:52:09;;;;;;;17.35;13.32;;;;;;;;;;5021622;28;20480;-79
2022/11/16 03:54:35;;;;;;;19.75;13.13;;;;;;;;;;5016095;28;20049;-78
2022/11/16 03:57:01;;;;;;;18.67;12.45;;;;;;;;;;5036000;28;20049;-78
2022/11/16 03:59:27;;;;;;;18.65;13.27;;;;;;;;;;5035457;28;20046;-78
2022/11/16 04:01:53;;;;;;;17.63;12.57;;;;;;;;;;5025380;28;20544;-78
2022/11/16 04:29:14;;;;;;;17.67;12.38;;;;;;;;;;4936128;29;20092;-78
2022/11/16 04:39:58;;;;;;;15.05;11.60;;;;;;;;;;4942917;29;20047;-78
2022/11/16 04:42:24;;;;;;;14.77;11.38;;;;;;;;;;4954409;29;20482;-79
2022/11/16 04:47:35;;;;;;;17.65;12.48;;;;;;;;;;4954501;29;20501;-78
2022/11/16 04:50:01;;;;;;;15.38;11.20;;;;;;;;;;4923864;29;20502;-78
2022/11/16 04:52:27;;;;;;;15.90;11.82;;;;;;;;;;4944711;29;20127;-78
2022/11/16 04:54:53;;;;;;;17.35;12.10;;;;;;;;;;4953456;29;20118;-78
2022/11/16 04:57:19;;;;;;;15.05;11.40;;;;;;;;;;4987395;28;20045;-78
2022/11/16 04:59:45;;;;;;;18.40;11.88;;;;;;;;;;5034602;28;20041;-78
2022/11/16 05:02:11;;;;;;;18.77;11.68;;;;;;;;;;5033280;28;20065;-78
2022/11/16 05:04:39;;;;;;;13.90;10.55;;;;;;;;;;4994545;28;20071;-78
2022/11/16 05:07:12;;;;;;;15.68;11.65;;;;;;;;;;5033817;28;20042;-78
2022/11/16 05:09:40;;;;;;;15.10;11.40;;;;;;;;;;5025625;28;20053;-78
2022/11/16 05:12:06;;;;;;;16.90;12.20;;;;;;;;;;4995771;28;20533;-79
2022/11/16 05:14:33;;;;;;;18.80;14.13;;;;;;;;;;4999891;28;20502;-78
2022/11/16 05:16:59;;;;;;;18.08;13.65;;;;;;;;;;5028890;28;20034;-78
2022/11/16 05:22:09;;;;;;;20.92;13.57;;;;;;;;;;5015053;28;20046;-79
2022/11/16 05:24:35;;;;;;;20.15;13.20;;;;;;;;;;5015272;28;20045;-79
2022/11/16 05:27:06;;;;;;;17.38;12.73;;;;;;;;;;5015705;28;20519;-78
2022/11/16 05:29:32;;;;;;;18.17;12.00;;;;;;;;;;5023711;28;20057;-78
2022/11/16 05:31:59;;;;;;;17.90;12.25;;;;;;;;;;5015811;28;20046;-78
2022/11/16 05:34:25;;;;;;;15.27;12.25;;;;;;;;;;5029045;28;20125;-78
2022/11/16 05:36:51;;;;;;;16.58;12.68;;;;;;;;;;5015153;28;20041;-78
2022/11/16 05:39:18;;;;;;;17.48;13.02;;;;;;;;;;5033257;28;20488;-78
2022/11/16 05:41:44;;;;;;;18.65;13.93;;;;;;;;;;4993365;28;20056;-79
2022/11/16 05:44:10;;;;;;;18.17;13.73;;;;;;;;;;5023404;28;20084;-78
2022/11/16 05:46:36;;;;;;;17.80;13.63;;;;;;;;;;5002063;28;20507;-79
2022/11/16 05:49:03;;;;;;;18.38;13.75;;;;;;;;;;5026507;28;20034;-79
2022/11/16 05:51:29;;;;;;;20.98;13.70;;;;;;;;;;5017447;28;20045;-79
2022/11/16 05:53:55;;;;;;;20.15;13.68;;;;;;;;;;5016630;28;20126;-79
2022/11/16 05:56:21;;;;;;;19.77;13.25;;;;;;;;;;5017143;28;20081;-79
2022/11/16 05:58:47;;;;;;;18.63;14.00;;;;;;;;;;5034074;28;20049;-79
2022/11/16 06:01:13;;;;;;;19.42;13.70;;;;;;;;;;4999788;28;20077;-79
2022/11/16 06:03:39;;;;;;;17.17;12.75;;;;;;;;;;5025485;28;20046;-79
2022/11/16 06:06:05;;;;;;;15.70;11.00;;;;;;;;;;5026036;28;20045;-79
2022/11/16 06:08:31;;;;;;;16.08;12.15;;;;;;;;;;5008758;28;20455;-79
2022/11/16 06:11:01;;;;;;;15.77;11.45;;;;;;;;;;5011834;28;20049;-79
2022/11/16 06:13:27;;;;;;;15.35;10.45;;;;;;;;;;5019717;28;20472;-78
2022/11/16 06:15:53;;;;;;;12.80;9.38;;;;;;;;;;5015013;28;20041;-78
2022/11/16 06:18:20;;;;;;;10.80;8.45;;;;;;;;;;5031551;28;20038;-78
2022/11/16 06:20:47;;;;;;;11.25;8.43;;;;;;;;;;5037401;28;20045;-78
2022/11/16 06:23:13;;;;;;;12.52;8.45;;;;;;;;;;5039124;28;20101;-78
2022/11/16 06:25:40;;;;;;;12.88;8.57;;;;;;;;;;5015924;28;20049;-78
2022/11/16 06:28:06;;;;;;;12.90;8.93;;;;;;;;;;5024666;28;20045;-78
2022/11/16 06:30:32;;;;;;;12.95;9.18;;;;;;;;;;5014537;28;20053;-78
2022/11/16 06:32:58;;;;;;;15.15;10.45;;;;;;;;;;5016573;28;20447;-78
2022/11/16 06:35:24;;;;;;;18.08;11.15;;;;;;;;;;5027638;28;20120;-78
2022/11/16 06:37:50;;;;;;;15.52;10.43;;;;;;;;;;5026994;28;20041;-78
2022/11/16 06:40:16;;;;;;;14.10;9.70;;;;;;;;;;5010577;28;20068;-78
2022/11/16 06:42:42;;;;;;;16.63;9.63;;;;;;;;;;5022959;28;20042;-78
2022/11/16 06:45:09;;;;;;;20.55;10.73;;;;;;;;;;5025927;28;20057;-78
2022/11/16 06:47:35;;;;;;;17.75;10.00;;;;;;;;;;5035758;28;20080;-78
2022/11/16 06:50:01;;;;;;;15.18;9.60;;;;;;;;;;5028161;28;20124;-78
2022/11/16 06:52:27;;;;;;;13.88;10.02;;;;;;;;;;5027108;28;20045;-79
2022/11/16 06:54:53;;;;;;;14.50;9.80;;;;;;;;;;5032575;28;20142;-79
2022/11/16 06:57:19;;;;;;;13.52;9.38;;;;;;;;;;5031925;28;20050;-78
2022/11/16 06:59:45;;;;;;;18.73;12.05;;;;;;;;;;5024619;28;20048;-80
2022/11/16 07:02:11;;;;;;;19.00;11.48;;;;;;;;;;5011855;28;20514;-80
2022/11/16 07:04:37;;;;;;;16.65;11.32;;;;;;;;;;5032511;28;20396;-80
2022/11/16 07:07:03;;;;;;;21.25;12.98;;;;;;;;;;5021846;28;20503;-80
2022/11/16 07:09:30;;;;;;;18.95;12.23;;;;;;;;;;4988557;28;20049;-80
2022/11/16 07:11:56;;;;;;;21.73;13.00;;;;;;;;;;4984475;28;20049;-80
2022/11/16 07:14:22;;;;;;;23.27;14.35;;;;;;;;;;5000398;28;20046;-80
2022/11/16 07:16:48;;;;;;;27.15;14.50;;;;;;;;;;4994769;28;20050;-79
2022/11/16 07:19:14;;;;;;;26.88;15.60;;;;;;;;;;4981612;28;20401;-79
2022/11/16 07:21:40;;;;;;;30.15;16.27;;;;;;;;;;4998664;28;20132;-79
2022/11/16 07:24:06;;;;;;;25.50;15.60;;;;;;;;;;4997449;28;20462;-79
2022/11/16 07:26:33;;;;;;;25.70;15.45;;;;;;;;;;4996731;28;20058;-79
2022/11/16 07:28:59;;;;;;;26.48;15.60;;;;;;;;;;4979192;28;20497;-79
2022/11/16 07:31:26;;;;;;;28.25;17.58;;;;;;;;;;4979309;28;20082;-79
2022/11/16 07:33:52;;;;;;;24.73;15.32;;;;;;;;;;5011917;28;20505;-79
2022/11/16 07:36:18;;;;;;;29.77;15.73;;;;;;;;;;5013348;28;20046;-79
2022/11/16 07:38:44;;;;;;;29.55;16.20;;;;;;;;;;4996520;28;20045;-79
2022/11/16 07:41:15;;;;;;;26.52;15.15;;;;;;;;;;5019769;28;20416;-79
2022/11/16 07:43:41;;;;;;;24.27;14.98;;;;;;;;;;5019671;28;20473;-79
2022/11/16 07:46:11;;;;;;;24.45;14.00;;;;;;;;;;5019409;28;20085;-79
2022/11/16 07:48:38;;;;;;;21.83;13.48;;;;;;;;;;4999068;28;20072;-79
2022/11/16 07:51:05;;;;;;;24.20;14.68;;;;;;;;;;5012090;28;20057;-79
2022/11/16 07:53:39;;;;;;;21.60;13.32;;;;;;;;;;5016068;28;20041;-80
2022/11/16 07:56:06;;;;;;;22.10;13.02;;;;;;;;;;5018533;28;20046;-80
2022/11/16 07:58:32;;;;;;;20.30;12.32;;;;;;;;;;5001865;28;20049;-80
2022/11/16 08:01:10;;;;;;;20.52;12.93;;;;;;;;;;5018675;28;20070;-80
2022/11/16 08:03:36;;;;;;;25.20;14.30;;;;;;;;;;5018370;28;20054;-80
2022/11/16 08:06:06;;;;;;;24.67;14.63;;;;;;;;;;4997862;28;20392;-80
2022/11/16 08:08:32;;;;;;;24.45;13.80;;;;;;;;;;5012375;28;20050;-80
2022/11/16 08:10:59;;;;;;;23.20;13.93;;;;;;;;;;4997243;28;20054;-80
2022/11/16 08:13:25;;;;;;;22.65;14.25;;;;;;;;;;5005501;28;20046;-80
2022/11/16 08:15:52;;;;;;;23.63;13.90;;;;;;;;;;4982741;28;20041;-79
2022/11/16 08:18:18;;;;;;;20.92;12.75;;;;;;;;;;5015740;28;20049;-79
2022/11/16 08:20:45;;;;;;;23.00;12.63;;;;;;;;;;4978365;28;20448;-80
2022/11/16 08:23:11;;;;;;;22.98;12.82;;;;;;;;;;4987712;28;20540;-83
2022/11/16 08:25:37;;;;;;;21.45;13.55;;;;;;;;;;5007646;28;20042;-81
2022/11/16 08:28:03;;;;;;;23.30;12.85;;;;;;;;;;5016838;28;20497;-79
2022/11/16 08:30:29;;;;;;;19.23;11.77;;;;;;;;;;4990814;28;20125;-82
2022/11/16 08:32:55;;;;;;;20.20;12.15;;;;;;;;;;5011363;28;20057;-79
2022/11/16 08:35:22;;;;;;;19.73;12.25;;;;;;;;;;5006358;28;20043;-79
2022/11/16 08:37:48;;;;;;;19.23;12.23;;;;;;;;;;5007516;28;20121;-80
2022/11/16 08:40:17;;;;;;;18.98;11.60;;;;;;;;;;4999358;28;20053;-79
2022/11/16 08:42:43;;;;;;;18.83;11.73;;;;;;;;;;4995464;28;20388;-80
2022/11/16 08:45:09;;;;;;;21.90;12.20;;;;;;;;;;5010176;28;20488;-79
2022/11/16 08:47:36;;;;;;;20.85;12.23;;;;;;;;;;4996744;28;20452;-79
2022/11/16 08:50:02;;;;;;;18.50;12.73;;;;;;;;;;5010507;28;20042;-79
2022/11/16 08:52:28;;;;;;;18.70;12.65;;;;;;;;;;5016757;28;20076;-78
2022/11/16 08:54:55;;;;;;;19.58;12.82;;;;;;;;;;5016083;28;20405;-81
2022/11/16 08:57:21;;;;;;;18.30;12.80;;;;;;;;;;4982057;28;20045;-79
2022/11/16 08:59:47;;;;;;;20.95;12.82;;;;;;;;;;4996060;28;20039;-79
2022/11/16 09:02:13;;;;;;;18.77;12.65;;;;;;;;;;5005241;28;20054;-79
2022/11/16 09:04:39;;;;;;;20.38;13.43;;;;;;;;;;5003533;28;20092;-79
2022/11/16 09:07:05;;;;;;;18.17;12.32;;;;;;;;;;5007998;28;20084;-79
2022/11/16 09:09:31;;;;;;;18.95;12.85;;;;;;;;;;5031531;28;20054;-79
2022/11/16 09:11:57;;;;;;;18.45;12.55;;;;;;;;;;5017665;28;20129;-79
2022/11/16 09:14:23;;;;;;;20.25;13.73;;;;;;;;;;5018309;28;20439;-79
2022/11/16 09:16:49;;;;;;;18.15;12.45;;;;;;;;;;5027419;28;20048;-79
2022/11/16 09:19:16;;;;;;;17.33;12.52;;;;;;;;;;5035092;28;20052;-79
2022/11/16 09:21:44;;;;;;;20.60;13.43;;;;;;;;;;5036177;28;20124;-79
2022/11/16 09:24:11;;;;;;;19.50;13.63;;;;;;;;;;5032320;28;20419;-77
2022/11/16 09:26:37;;;;;;;22.27;13.05;;;;;;;;;;5031376;28;20049;-77
2022/11/16 09:29:03;;;;;;;20.45;13.07;;;;;;;;;;5021657;28;20041;-77
2022/11/16 09:31:32;;;;;;;21.00;13.70;;;;;;;;;;5025965;28;20053;-77
2022/11/16 09:33:59;;;;;;;19.10;12.60;;;;;;;;;;5025561;28;20056;-77
2022/11/16 09:36:26;;;;;;;17.23;11.50;;;;;;;;;;5030496;28;20041;-77
2022/11/16 09:38:53;;;;;;;19.15;11.95;;;;;;;;;;5001956;28;20049;-76
2022/11/16 09:41:31;;;;;;;17.23;11.90;;;;;;;;;;5038567;28;20060;-77
2022/11/16 09:44:04;;;;;;;17.17;12.25;;;;;;;;;;5035087;28;20052;-77
2022/11/16 09:46:41;;;;;;;17.58;12.60;;;;;;;;;;5033853;28;20042;-77
2022/11/16 09:49:11;;;;;;;16.85;12.20;;;;;;;;;;5014109;28;20041;-77
2022/11/16 09:51:39;;;;;;;16.08;11.93;;;;;;;;;;5033457;28;20436;-77
2022/11/16 09:54:12;;;;;;;20.50;12.73;;;;;;;;;;5015391;28;20081;-77
2022/11/16 09:56:40;;;;;;;19.95;12.90;;;;;;;;;;5033506;28;20117;-77
2022/11/16 09:59:27;;;;;;;20.35;13.48;;;;;;;;;;5033085;28;20544;-77
2022/11/16 10:01:58;;;;;;;21.55;13.18;;;;;;;;;;5033991;28;20064;-77
2022/11/16 10:04:29;;;;;;;18.52;12.82;;;;;;;;;;5034085;28;20054;-77
2022/11/16 10:07:00;;;;;;;20.75;14.18;;;;;;;;;;5015273;28;20103;-77
2022/11/16 10:09:27;;;;;;;20.88;14.20;;;;;;;;;;5028506;28;20038;-77
2022/11/16 10:12:11;;;;;;;22.92;14.85;;;;;;;;;;5030907;28;20041;-77
2022/11/16 10:14:37;;;;;;;19.85;13.48;;;;;;;;;;5037058;28;20049;-77
2022/11/16 10:17:09;;;;;;;20.88;13.85;;;;;;;;;;5032690;28;20034;-77
2022/11/16 10:19:55;;;;;;;21.05;14.15;;;;;;;;;;5010618;28;20494;-77
2022/11/16 10:22:40;;;;;;;22.10;14.43;;;;;;;;;;5031383;28;20041;-77
2022/11/16 10:25:08;;;;;;;20.17;13.50;;;;;;;;;;5022302;28;20491;-77
2022/11/16 10:27:54;;;;;;;22.98;13.43;;;;;;;;;;5034176;28;20124;-77
2022/11/16 10:30:21;;;;;;;23.08;14.70;;;;;;;;;;5029030;28;20087;-77
2022/11/16 10:32:47;;;;;;;21.83;14.23;;;;;;;;;;5023190;28;20045;-77
2022/11/16 10:35:25;;;;;;;21.55;12.52;;;;;;;;;;5018536;28;20050;-77
2022/11/16 10:37:51;;;;;;;16.67;12.07;;;;;;;;;;5027937;28;20048;-76
2022/11/16 10:40:19;;;;;;;19.08;12.35;;;;;;;;;;5028757;28;20042;-76
2022/11/16 10:42:50;;;;;;;17.63;12.40;;;;;;;;;;5010058;28;20071;-76
2022/11/16 10:45:24;;;;;;;15.80;11.70;;;;;;;;;;5025382;28;20045;-76
2022/11/16 10:48:03;;;;;;;17.02;11.63;;;;;;;;;;5005122;28;20049;-83
2022/11/16 10:50:31;;;;;;;17.85;11.70;;;;;;;;;;5010404;28;20080;-83
2022/11/16 10:52:58;;;;;;;16.42;12.00;;;;;;;;;;5024745;28;20041;-83
2022/11/16 10:55:24;;;;;;;18.38;11.55;;;;;;;;;;5025989;28;20038;-84
2022/11/16 10:57:57;;;;;;;17.92;10.57;;;;;;;;;;5038020;28;20052;-81
2022/11/16 11:00:41;;;;;;;13.40;9.00;;;;;;;;;;5013445;28;20049;-83
2022/11/16 11:03:09;;;;;;;13.55;7.95;;;;;;;;;;5009181;28;20050;-83
2022/11/16 11:05:36;;;;;;;13.05;7.97;;;;;;;;;;5039741;28;20407;-83
2022/11/16 11:08:09;;;;;;;13.27;8.07;;;;;;;;;;5023069;28;20156;-83
2022/11/16 11:10:37;;;;;;;13.88;7.78;;;;;;;;;;5001995;28;20448;-82
2022/11/16 11:13:03;;;;;;;10.00;7.15;;;;;;;;;;4999665;28;20053;-84
2022/11/16 11:15:29;;;;;;;12.10;6.53;;;;;;;;;;5019450;28;20046;-82
2022/11/16 11:18:14;;;;;;;10.93;7.47;;;;;;;;;;5015693;28;20084;-83
2022/11/16 11:20:41;;;;;;;15.85;8.48;;;;;;;;;;5005474;28;20037;-82
2022/11/16 11:23:21;;;;;;;14.27;8.10;;;;;;;;;;5020984;28;20046;-82
2022/11/16 11:25:50;;;;;;;13.23;7.65;;;;;;;;;;5002151;28;20050;-82
2022/11/16 11:28:36;;;;;;;11.40;7.75;;;;;;;;;;5007161;28;20042;-82
2022/11/16 11:31:02;;;;;;;13.43;7.90;;;;;;;;;;5031070;28;20043;-83
2022/11/16 11:33:49;;;;;;;14.57;7.55;;;;;;;;;;5002570;28;20057;-83
2022/11/16 11:36:20;;;;;;;13.50;7.55;;;;;;;;;;4985250;28;20488;-81
2022/11/16 11:39:03;;;;;;;14.60;7.40;;;;;;;;;;5020186;28;20041;-81
2022/11/16 11:41:33;;;;;;;13.77;8.93;;;;;;;;;;5001448;28;20042;-83
2022/11/16 11:44:07;;;;;;;9.65;7.25;;;;;;;;;;5011380;28;20053;-82
2022/11/16 11:46:36;;;;;;;11.27;7.43;;;;;;;;;;5017449;28;20049;-82
2022/11/16 11:49:28;;;;;;;10.77;7.13;;;;;;;;;;5016403;28;20446;-83
2022/11/16 11:51:55;;;;;;;14.63;7.47;;;;;;;;;;4974380;28;20138;-82
2022/11/16 11:54:28;;;;;;;12.93;7.28;;;;;;;;;;5021410;28;20042;-82
2022/11/16 11:56:54;;;;;;;12.27;7.78;;;;;;;;;;5002938;28;20076;-83
2022/11/16 11:59:22;;;;;;;13.23;7.90;;;;;;;;;;4990399;28;20109;-83
2022/11/16 12:01:48;;;;;;;11.20;7.40;;;;;;;;;;5009507;28;20113;-82
2022/11/16 12:04:33;;;;;;;13.38;6.93;;;;;;;;;;5007316;28;20070;-83
2022/11/16 12:07:18;;;;;;;13.88;6.90;;;;;;;;;;5009390;28;20043;-83
2022/11/16 12:09:50;;;;;;;11.93;6.70;;;;;;;;;;4983394;28;20042;-83
2022/11/16 12:12:37;;;;;;;10.23;6.20;;;;;;;;;;5000541;28;20042;-83
2022/11/16 12:15:03;;;;;;;12.30;6.63;;;;;;;;;;5018302;28;20042;-83
2022/11/16 12:17:29;;;;;;;10.55;7.57;;;;;;;;;;5000372;28;20144;-83
2022/11/16 12:19:58;;;;;;;10.25;5.90;;;;;;;;;;5002971;28;20038;-83
2022/11/16 12:22:43;;;;;;;8.73;4.88;;;;;;;;;;4998193;28;20054;-83
2022/11/16 12:25:24;;;;;;;8.48;4.80;;;;;;;;;;4998045;28;20050;-83
2022/11/16 12:28:13;;;;;;;13.27;6.40;;;;;;;;;;4980543;28;20057;-83
2022/11/16 12:30:59;;;;;;;8.85;5.00;;;;;;;;;;4992408;28;20053;-83
2022/11/16 12:33:42;;;;;;;9.00;4.85;;;;;;;;;;4953753;28;20077;-83
2022/11/16 12:36:30;;;;;;;9.27;4.65;;;;;;;;;;5017525;28;20064;-83
2022/11/16 12:39:04;;;;;;;12.82;5.43;;;;;;;;;;5017722;28;20504;-83
2022/11/16 12:41:33;;;;;;;9.75;4.70;;;;;;;;;;5018333;28;20093;-83
2022/11/16 12:44:01;;;;;;;8.85;4.55;;;;;;;;;;5017882;28;20080;-83
2022/11/16 12:46:45;;;;;;;10.98;4.47;;;;;;;;;;5017605;28;20046;-83
2022/11/16 12:49:23;;;;;;;9.55;5.30;;;;;;;;;;5017347;28;20049;-83
2022/11/16 12:52:07;;;;;;;6.68;4.35;;;;;;;;;;4998099;28;20074;-83
2022/11/16 12:54:33;;;;;;;8.25;4.50;;;;;;;;;;5000545;28;20132;-83
2022/11/16 12:57:11;;;;;;;5.80;4.28;;;;;;;;;;5017277;28;20049;-83
2022/11/16 12:59:57;;;;;;;7.55;4.07;;;;;;;;;;5019321;28;20512;-83
2022/11/16 13:02:29;;;;;;;8.40;4.20;;;;;;;;;;5026761;28;20097;-83
2022/11/16 13:04:59;;;;;;;10.18;4.10;;;;;;;;;;5025766;28;20057;-83
2022/11/16 13:07:29;;;;;;;11.18;4.57;;;;;;;;;;5021735;28;20129;-83
2022/11/16 13:09:58;;;;;;;8.63;4.55;;;;;;;;;;5021523;28;20052;-83
2022/11/16 13:12:27;;;;;;;8.88;4.35;;;;;;;;;;5041355;28;20103;-83
2022/11/16 13:14:55;;;;;;;5.75;3.28;;;;;;;;;;5025906;28;20045;-82
2022/11/16 13:17:26;;;;;;;8.00;3.97;;;;;;;;;;5044269;28;20053;-82
2022/11/16 13:19:55;;;;;;;7.60;3.67;;;;;;;;;;5043608;28;20046;-83
2022/11/16 13:22:23;;;;;;;7.68;3.80;;;;;;;;;;5042515;28;20124;-83
2022/11/16 13:24:49;;;;;;;8.18;3.78;;;;;;;;;;5042745;28;20049;-82
2022/11/16 13:27:20;;;;;;;8.70;3.67;;;;;;;;;;5041047;28;20046;-83
2022/11/16 13:30:03;;;;;;;8.10;3.95;;;;;;;;;;5039315;28;20041;-83
2022/11/16 13:32:33;;;;;;;7.68;3.63;;;;;;;;;;5021148;28;20053;-83
2022/11/16 13:35:00;;;;;;;9.10;3.53;;;;;;;;;;5025331;28;20042;-83
2022/11/16 13:37:38;;;;;;;6.35;3.33;;;;;;;;;;5000777;28;20052;-83
2022/11/16 13:40:04;;;;;;;6.63;3.40;;;;;;;;;;5034477;28;20042;-83
2022/11/16 13:42:35;;;;;;;12.27;3.67;;;;;;;;;;5019314;28;20124;-83
2022/11/16 13:45:09;;;;;;;10.80;4.28;;;;;;;;;;5039164;28;20045;-83
2022/11/16 13:47:36;;;;;;;8.10;3.30;;;;;;;;;;5038892;28;20056;-83
2022/11/16 13:50:04;;;;;;;9.70;3.67;;;;;;;;;;5047921;28;20041;-83
2022/11/16 13:52:44;;;;;;;6.68;3.30;;;;;;;;;;5036571;28;20392;-83
2022/11/16 13:55:14;;;;;;;9.70;4.28;;;;;;;;;;5019975;28;20045;-83
2022/11/16 13:57:47;;;;;;;10.95;3.70;;;;;;;;;;5038530;28;20100;-83
2022/11/16 14:00:19;;;;;;;8.77;3.25;;;;;;;;;;5024851;28;20057;-84
2022/11/16 14:02:46;;;;;;;10.70;3.38;;;;;;;;;;5036289;28;20037;-83
2022/11/16 14:05:12;;;;;;;8.55;3.17;;;;;;;;;;5017618;28;20042;-83
2022/11/16 14:07:51;;;;;;;7.22;3.22;;;;;;;;;;5031487;28;20136;-83
2022/11/16 14:10:33;;;;;;;8.60;3.40;;;;;;;;;;5016482;28;20077;-83
2022/11/16 14:12:59;;;;;;;13.27;3.83;;;;;;;;;;5009394;28;20178;-83
2022/11/16 14:15:27;;;;;;;7.80;3.58;;;;;;;;;;5000813;28;20068;-83
2022/11/16 14:17:57;;;;;;;5.93;3.47;;;;;;;;;;5017239;28;20528;-83
2022/11/16 14:20:50;;;;;;;4.97;2.97;;;;;;;;;;4999973;28;20042;-83
2022/11/16 14:23:28;;;;;;;9.95;3.60;;;;;;;;;;5012552;28;20146;-83
2022/11/16 14:26:12;;;;;;;9.90;3.78;;;;;;;;;;5016309;28;20080;-83
2022/11/16 14:28:53;;;;;;;9.38;4.28;;;;;;;;;;5016208;28;20046;-83
2022/11/16 14:31:23;;;;;;;8.07;3.72;;;;;;;;;;5003927;28;20456;-83
2022/11/16 14:33:51;;;;;;;7.90;3.80;;;;;;;;;;4998744;28;20049;-83
2022/11/16 14:36:17;;;;;;;7.82;3.80;;;;;;;;;;5014443;28;20053;-82
2022/11/16 14:38:44;;;;;;;8.07;3.53;;;;;;;;;;5015899;28;20049;-82
2022/11/16 14:41:21;;;;;;;11.70;3.80;;;;;;;;;;5007742;28;20508;-81
2022/11/16 14:43:49;;;;;;;8.73;3.50;;;;;;;;;;5008648;28;20169;-82
2022/11/16 14:46:20;;;;;;;7.82;3.70;;;;;;;;;;5015808;28;20045;-82
2022/11/16 14:48:46;;;;;;;10.18;3.88;;;;;;;;;;4988832;28;20046;-82
2022/11/16 14:51:16;;;;;;;7.50;3.40;;;;;;;;;;4998118;28;20070;-82
2022/11/16 14:53:46;;;;;;;7.90;3.80;;;;;;;;;;5005127;28;20129;-82
2022/11/16 14:56:13;;;;;;;8.85;4.10;;;;;;;;;;5004262;28;20039;-82
2022/11/16 14:58:49;;;;;;;6.32;3.10;;;;;;;;;;5011451;28;20038;-82
2022/11/16 15:01:16;;;;;;;7.45;3.85;;;;;;;;;;5003793;28;20527;-82
2022/11/16 15:04:03;;;;;;;6.55;3.60;;;;;;;;;;4967879;28;20101;-81
2022/11/16 15:06:36;;;;;;;7.82;3.60;;;;;;;;;;5020908;28;20504;-81
2022/11/16 15:09:04;;;;;;;9.30;3.53;;;;;;;;;;5036580;28;20113;-81
2022/11/16 15:14:20;;;;;;;9.10;4.00;;;;;;;;;;5041372;28;20075;-81
2022/11/16 15:16:54;;;;;;;9.75;3.85;;;;;;;;;;5040820;28;20555;-81
2022/11/16 15:19:20;;;;;;;8.52;3.95;;;;;;;;;;5021678;28;20167;-81
2022/11/16 15:21:53;;;;;;;10.23;3.40;;;;;;;;;;5033482;28;20120;-81
2022/11/16 15:24:28;;;;;;;8.82;3.63;;;;;;;;;;5030258;28;20052;-81
2022/11/16 15:26:55;;;;;;;10.68;3.85;;;;;;;;;;5040871;28;20500;-81